createdAt,value
2022-07-25T00:00:25.576Z,28.14
2022-07-25T00:05:37.363Z,28.08
2022-07-25T00:10:39.859Z,28.03
2022-07-25T00:15:41.696Z,27.95
2022-07-25T00:20:43.336Z,27.87
2022-07-25T00:25:45.674Z,27.81
2022-07-25T00:30:47.986Z,27.75
2022-07-25T00:35:50.607Z,27.72
2022-07-25T00:40:55.321Z,27.67
2022-07-25T00:46:06.461Z,27.63
2022-07-25T00:51:12.501Z,27.58
2022-07-25T00:56:15.693Z,27.53
2022-07-25T01:01:18.175Z,27.48
2022-07-25T01:06:20.997Z,27.43
2022-07-25T01:11:27.987Z,27.39
2022-07-25T01:16:30.699Z,27.35
2022-07-25T01:21:33.010Z,27.31
2022-07-25T01:26:35.264Z,27.27
2022-07-25T01:31:37.914Z,27.21
2022-07-25T01:36:42.518Z,27.17
2022-07-25T01:41:44.349Z,27.11
2022-07-25T01:46:46.774Z,27.07
2022-07-25T01:51:48.651Z,27.00
2022-07-25T01:56:51.290Z,26.95
2022-07-25T02:01:54.077Z,26.89
2022-07-25T02:06:57.130Z,26.85
2022-07-25T02:12:00.149Z,26.81
2022-07-25T02:17:02.267Z,26.75
2022-07-25T02:22:04.857Z,26.69
2022-07-25T02:27:10.292Z,26.65
2022-07-25T02:32:12.336Z,26.61
2022-07-25T02:37:17.932Z,26.55
2022-07-25T02:42:20.441Z,26.51
2022-07-25T02:47:22.440Z,26.47
2022-07-25T02:52:24.931Z,26.44
2022-07-25T02:57:26.771Z,26.40
2022-07-25T03:02:28.559Z,26.36
2022-07-25T03:07:30.270Z,26.33
2022-07-25T03:12:36.322Z,26.28
2022-07-25T03:17:39.318Z,26.26
2022-07-25T03:22:49.409Z,26.23
2022-07-25T03:27:52.222Z,26.18
2022-07-25T03:32:55.292Z,26.13
2022-07-25T03:37:57.669Z,26.08
2022-07-25T03:42:59.528Z,26.06
2022-07-25T03:48:01.391Z,26.04
2022-07-25T03:53:04.489Z,26.02
2022-07-25T03:58:07.180Z,26.01
2022-07-25T04:03:08.944Z,25.98
2022-07-25T04:08:11.754Z,25.91
2022-07-25T04:13:20.083Z,25.85
2022-07-25T04:18:27.436Z,25.80
2022-07-25T04:23:31.506Z,25.77
2022-07-25T04:28:33.853Z,25.75
2022-07-25T04:33:43.081Z,25.76
2022-07-25T04:38:47.450Z,25.78
2022-07-25T04:43:51.389Z,25.81
2022-07-25T04:48:54.010Z,25.85
2022-07-25T04:53:55.681Z,25.89
2022-07-25T04:59:00.599Z,25.91
2022-07-25T05:04:14.767Z,25.94
2022-07-25T05:09:19.807Z,26.00
2022-07-25T05:14:21.804Z,26.05
2022-07-25T05:19:23.474Z,26.10
2022-07-25T05:24:25.156Z,26.16
2022-07-25T05:29:28.398Z,26.21
2022-07-25T05:34:30.789Z,26.25
2022-07-25T05:39:33.035Z,26.29
2022-07-25T05:44:41.825Z,26.35
2022-07-25T05:49:43.814Z,26.42
2022-07-25T05:54:45.811Z,26.47
2022-07-25T05:59:47.898Z,26.52
2022-07-25T06:04:52.894Z,26.56
2022-07-25T06:09:54.820Z,26.63
2022-07-25T06:14:56.521Z,26.71
2022-07-25T06:19:58.704Z,26.78
2022-07-25T06:25:05.002Z,26.85
2022-07-25T06:30:18.649Z,26.91
2022-07-25T06:35:25.166Z,26.98
2022-07-25T06:40:27.105Z,27.05
2022-07-25T06:45:28.892Z,27.11
2022-07-25T06:50:31.340Z,27.20
2022-07-25T06:55:33.103Z,27.28
2022-07-25T07:00:34.972Z,27.35
2022-07-25T07:05:37.361Z,27.42
2022-07-25T07:10:40.273Z,27.51
2022-07-25T07:15:47.710Z,27.57
2022-07-25T07:20:49.384Z,27.66
2022-07-25T07:25:51.024Z,27.76
2022-07-25T07:31:15.146Z,27.87
2022-07-25T07:36:14.259Z,28.00
2022-07-25T07:41:15.917Z,28.14
2022-07-25T07:46:17.601Z,28.26
2022-07-25T07:51:19.272Z,28.39
2022-07-25T07:56:21.176Z,28.53
2022-07-25T08:01:22.838Z,28.67
2022-07-25T08:06:24.574Z,28.82
2022-07-25T08:11:26.560Z,28.98
2022-07-25T08:16:28.253Z,29.12
2022-07-25T08:21:30.042Z,29.26
2022-07-25T08:26:33.839Z,29.38
2022-07-25T08:31:35.467Z,29.51
2022-07-25T08:36:37.117Z,29.62
2022-07-25T08:41:41.189Z,29.74
2022-07-25T08:46:45.190Z,29.89
2022-07-25T08:51:47.663Z,30.03
2022-07-25T08:56:53.472Z,30.16
2022-07-25T09:01:55.151Z,30.27
2022-07-25T09:06:56.837Z,30.38
2022-07-25T09:11:58.687Z,30.52
2022-07-25T09:17:22.558Z,30.65
2022-07-25T09:22:25.624Z,30.81
2022-07-25T09:27:36.495Z,30.93
2022-07-25T09:32:39.469Z,31.09
2022-07-25T09:37:44.137Z,31.22
2022-07-25T09:42:50.675Z,31.31
2022-07-25T09:47:56.901Z,31.47
2022-07-25T09:53:02.525Z,31.61
2022-07-25T09:58:04.316Z,31.76
2022-07-25T10:03:16.921Z,31.93
2022-07-25T10:08:20.923Z,32.04
2022-07-25T10:13:31.506Z,32.11
2022-07-25T10:18:34.457Z,32.22
2022-07-25T10:23:36.201Z,32.34
2022-07-25T10:29:05.272Z,32.49
2022-07-25T10:34:11.069Z,32.65
2022-07-25T10:39:15.634Z,32.79
2022-07-25T10:44:17.366Z,32.94
2022-07-25T10:49:32.070Z,33.06
2022-07-25T10:54:38.912Z,33.21
2022-07-25T10:59:41.409Z,33.38
2022-07-25T11:04:44.853Z,33.55
2022-07-25T11:09:57.160Z,33.72
2022-07-25T11:15:07.273Z,33.84
2022-07-25T11:20:10.583Z,33.93
2022-07-25T11:25:14.525Z,33.99
2022-07-25T11:30:28.982Z,34.08
2022-07-25T11:35:32.822Z,34.20
2022-07-25T11:40:42.865Z,34.33
2022-07-25T11:45:44.493Z,34.39
2022-07-25T11:50:46.401Z,34.46
2022-07-25T11:55:48.198Z,34.50
2022-07-25T12:00:50.727Z,34.53
2022-07-25T12:05:58.496Z,34.61
2022-07-25T12:11:01.477Z,34.70
2022-07-25T12:16:04.183Z,34.70
2022-07-25T12:21:07.587Z,34.85
2022-07-25T12:26:13.776Z,35.00
2022-07-25T12:31:18.509Z,35.17
2022-07-25T12:36:23.140Z,35.19
2022-07-25T12:41:25.378Z,35.30
2022-07-25T12:46:30.014Z,35.30
2022-07-25T12:51:31.656Z,35.29
2022-07-25T12:56:33.414Z,35.28
2022-07-25T13:01:36.519Z,35.43
2022-07-25T13:06:46.733Z,35.60
2022-07-25T13:11:48.971Z,35.76
2022-07-25T13:16:50.780Z,35.74
2022-07-25T13:21:53.431Z,35.88
2022-07-25T13:26:55.209Z,35.92
2022-07-25T13:31:56.956Z,36.01
2022-07-25T13:36:58.699Z,36.05
2022-07-25T13:42:00.370Z,36.06
2022-07-25T13:47:02.185Z,36.16
2022-07-25T13:52:04.418Z,36.30
2022-07-25T13:57:06.082Z,36.41
2022-07-25T14:02:07.797Z,36.48
2022-07-25T14:07:09.584Z,36.49
2022-07-25T14:12:11.216Z,36.60
2022-07-25T14:17:12.907Z,36.61
2022-07-25T14:22:14.609Z,36.62
2022-07-25T14:27:16.234Z,36.66
2022-07-25T14:32:17.947Z,36.77
2022-07-25T14:37:20.953Z,36.89
2022-07-25T14:42:22.637Z,37.06
2022-07-25T14:47:27.222Z,37.14
2022-07-25T14:52:29.280Z,37.29
2022-07-25T14:57:30.902Z,37.28
2022-07-25T15:02:32.580Z,37.43
2022-07-25T15:07:34.445Z,37.42
2022-07-25T15:12:38.900Z,37.44
2022-07-25T15:17:40.660Z,37.54
2022-07-25T15:22:42.406Z,37.61
2022-07-25T15:27:44.295Z,37.69
2022-07-25T15:32:46.046Z,37.81
2022-07-25T15:37:47.910Z,37.83
2022-07-25T15:42:49.691Z,37.90
2022-07-25T15:47:51.865Z,37.90
2022-07-25T15:52:53.513Z,37.99
2022-07-25T15:57:55.160Z,38.10
2022-07-25T16:02:57.152Z,38.12
2022-07-25T16:08:02.229Z,38.01
2022-07-25T16:13:04.587Z,37.87
2022-07-25T16:18:06.616Z,37.76
2022-07-25T16:23:08.908Z,37.61
2022-07-25T16:28:11.416Z,37.46
2022-07-25T16:33:14.233Z,37.29
2022-07-25T16:38:17.117Z,37.19
2022-07-25T16:43:18.705Z,37.09
2022-07-25T16:48:20.633Z,37.02
2022-07-25T16:53:32.773Z,36.92
2022-07-25T16:58:35.067Z,36.82
2022-07-25T17:03:36.725Z,36.75
2022-07-25T17:08:38.589Z,36.64
2022-07-25T17:13:41.556Z,36.55
2022-07-25T17:18:43.148Z,36.46
2022-07-25T17:23:45.002Z,36.33
2022-07-25T17:28:47.951Z,35.76
2022-07-25T17:33:50.877Z,34.90
2022-07-25T17:38:53.002Z,34.22
2022-07-25T17:43:54.750Z,33.85
2022-07-25T17:49:00.578Z,33.54
2022-07-25T17:54:09.085Z,33.12
2022-07-25T17:59:11.228Z,32.55
2022-07-25T18:04:14.396Z,32.13
2022-07-25T18:09:16.099Z,31.88
2022-07-25T18:14:17.747Z,31.72
2022-07-25T18:19:19.549Z,31.67
2022-07-25T18:24:24.757Z,31.63
2022-07-25T18:29:29.265Z,31.59
2022-07-25T18:34:33.998Z,31.57
2022-07-25T18:39:35.650Z,31.52
2022-07-25T18:44:37.509Z,31.40
2022-07-25T18:49:39.612Z,31.36
2022-07-25T18:54:41.303Z,31.30
2022-07-25T18:59:43.315Z,31.27
2022-07-25T19:04:45.147Z,31.23
2022-07-25T19:09:46.895Z,31.12
2022-07-25T19:14:49.303Z,31.07
2022-07-25T19:19:52.701Z,31.04
2022-07-25T19:24:54.366Z,31.01
2022-07-25T19:29:55.990Z,30.96
2022-07-25T19:34:57.657Z,30.91
2022-07-25T19:40:00.956Z,30.83
2022-07-25T19:45:03.452Z,30.76
2022-07-25T19:50:05.539Z,30.65
2022-07-25T19:55:07.597Z,30.53
2022-07-25T20:00:10.217Z,30.40
2022-07-25T20:05:14.600Z,30.21
2022-07-25T20:10:17.873Z,30.02
2022-07-25T20:15:19.826Z,29.92
2022-07-25T20:20:21.486Z,29.86
2022-07-25T20:25:23.301Z,29.80
2022-07-25T20:30:25.146Z,29.85
2022-07-25T20:35:30.991Z,29.86
2022-07-25T20:40:36.194Z,29.73
2022-07-25T20:45:39.584Z,29.28
2022-07-25T20:50:42.095Z,29.02
2022-07-25T20:55:43.934Z,28.89
2022-07-25T21:00:46.542Z,28.75
2022-07-25T21:05:48.361Z,28.56
2022-07-25T21:10:50.106Z,28.26
2022-07-25T21:15:51.890Z,28.28
2022-07-25T21:20:53.887Z,28.25
2022-07-25T21:25:55.664Z,28.18
2022-07-25T21:30:57.327Z,28.19
2022-07-25T21:35:59.239Z,28.26
2022-07-25T21:41:00.993Z,28.28
2022-07-25T21:46:02.731Z,28.26
2022-07-25T21:51:07.710Z,28.25
2022-07-25T21:56:09.563Z,28.26
2022-07-25T22:01:11.189Z,28.24
2022-07-25T22:06:12.960Z,28.28
2022-07-25T22:11:35.796Z,28.34
2022-07-25T22:16:36.720Z,28.34
2022-07-25T22:21:40.597Z,28.30
2022-07-25T22:26:42.542Z,28.31
2022-07-25T22:31:44.574Z,28.23
2022-07-25T22:36:46.498Z,28.18
2022-07-25T22:41:48.588Z,28.18
2022-07-25T22:46:50.391Z,28.21
2022-07-25T22:51:52.367Z,28.21
2022-07-25T22:56:54.101Z,28.16
2022-07-25T23:01:55.996Z,28.12
2022-07-25T23:06:57.678Z,28.13
2022-07-25T23:11:59.270Z,28.06
2022-07-25T23:17:20.066Z,28.03
2022-07-25T23:22:25.523Z,28.00
2022-07-25T23:27:27.370Z,27.95
2022-07-25T23:32:28.988Z,27.88
2022-07-25T23:37:30.845Z,27.84
2022-07-25T23:42:32.854Z,27.82
2022-07-25T23:47:39.298Z,27.76
2022-07-25T23:52:42.493Z,27.76
2022-07-25T23:57:44.239Z,27.75
